createdAt,value
2023-02-23T00:01:56.524Z,10.20
2023-02-23T00:04:24.272Z,10.07
2023-02-23T00:06:52.444Z,10.27
2023-02-23T00:09:25.796Z,10.27
2023-02-23T00:11:55.386Z,9.77
2023-02-23T00:14:27.460Z,10.00
2023-02-23T00:16:59.854Z,9.80
2023-02-23T00:19:29.719Z,9.63
2023-02-23T00:21:58.804Z,10.10
2023-02-23T00:24:31.444Z,9.13
2023-02-23T00:26:58.476Z,9.53
2023-02-23T00:29:25.400Z,9.57
2023-02-23T00:31:52.776Z,9.67
2023-02-23T00:34:21.712Z,8.80
2023-02-23T00:36:56.117Z,9.60
2023-02-23T00:39:28.846Z,8.53
2023-02-23T00:41:56.556Z,8.53
2023-02-23T00:44:24.257Z,9.57
2023-02-23T00:46:52.220Z,10.00
2023-02-23T00:49:20.781Z,9.83
2023-02-23T00:51:47.983Z,10.83
2023-02-23T00:54:16.244Z,10.47
2023-02-23T00:56:43.407Z,10.07
2023-02-23T00:59:11.108Z,10.60
2023-02-23T01:01:38.742Z,11.00
2023-02-23T01:04:07.330Z,10.70
2023-02-23T01:06:37.459Z,11.47
2023-02-23T01:09:28.508Z,11.27
2023-02-23T01:11:56.541Z,10.80
2023-02-23T01:14:24.580Z,10.27
2023-02-23T01:16:51.405Z,10.80
2023-02-23T01:19:18.090Z,10.83
2023-02-23T01:21:44.909Z,10.47
2023-02-23T01:24:13.104Z,10.90
2023-02-23T01:26:42.845Z,10.17
2023-02-23T01:29:15.119Z,11.40
2023-02-23T01:31:45.058Z,10.77
2023-02-23T01:34:13.893Z,11.20
2023-02-23T01:36:42.668Z,11.47
2023-02-23T01:39:13.007Z,10.60
2023-02-23T01:41:42.337Z,10.37
2023-02-23T01:44:31.868Z,10.80
2023-02-23T01:46:58.562Z,10.97
2023-02-23T01:49:28.608Z,10.50
2023-02-23T01:52:04.789Z,10.67
2023-02-23T01:54:36.230Z,10.40
2023-02-23T01:57:07.745Z,10.63
2023-02-23T01:59:44.693Z,10.70
2023-02-23T02:02:13.292Z,11.67
2023-02-23T02:04:45.144Z,14.33
2023-02-23T02:07:18.415Z,14.17
2023-02-23T02:10:06.259Z,12.40
2023-02-23T02:12:33.439Z,11.97
2023-02-23T02:15:00.770Z,11.10
2023-02-23T02:18:23.411Z,11.27
2023-02-23T02:21:14.567Z,12.13
2023-02-23T02:24:02.849Z,11.60
2023-02-23T02:26:58.469Z,11.37
2023-02-23T02:29:49.266Z,10.70
2023-02-23T02:32:19.035Z,11.67
2023-02-23T02:35:02.238Z,11.60
2023-02-23T02:37:44.178Z,12.20
2023-02-23T02:40:28.449Z,11.60
2023-02-23T02:43:13.002Z,11.53
2023-02-23T02:45:55.075Z,11.60
2023-02-23T02:48:38.552Z,11.73
2023-02-23T02:51:05.277Z,11.50
2023-02-23T02:53:49.932Z,11.63
2023-02-23T02:56:19.831Z,10.80
2023-02-23T02:58:50.031Z,12.00
2023-02-23T03:01:36.645Z,11.80
2023-02-23T03:04:40.878Z,12.00
2023-02-23T03:08:08.746Z,12.77
2023-02-23T03:11:00.195Z,11.30
2023-02-23T03:14:00.456Z,13.80
2023-02-23T03:17:10.057Z,12.87
2023-02-23T03:20:03.078Z,13.30
2023-02-23T03:22:56.543Z,11.90
2023-02-23T03:25:49.998Z,13.20
2023-02-23T03:28:49.857Z,12.80
2023-02-23T03:31:50.191Z,13.03
2023-02-23T03:34:47.239Z,12.97
2023-02-23T03:37:38.203Z,13.53
2023-02-23T03:40:44.975Z,12.93
2023-02-23T03:43:43.781Z,12.77
2023-02-23T03:46:32.753Z,12.37
2023-02-23T03:49:22.614Z,12.00
2023-02-23T03:52:13.991Z,12.57
2023-02-23T03:55:08.138Z,12.27
2023-02-23T03:57:55.052Z,12.33
2023-02-23T04:00:48.507Z,14.17
2023-02-23T04:03:36.393Z,13.40
2023-02-23T04:06:25.720Z,11.87
2023-02-23T04:09:12.185Z,13.43
2023-02-23T04:12:15.328Z,12.80
2023-02-23T04:14:43.965Z,12.40
2023-02-23T04:17:12.087Z,13.53
2023-02-23T04:19:38.697Z,13.73
2023-02-23T04:22:05.345Z,13.77
2023-02-23T04:24:31.984Z,13.60
2023-02-23T04:26:58.668Z,13.50
2023-02-23T04:29:25.259Z,13.90
2023-02-23T04:31:52.115Z,13.80
2023-02-23T04:34:18.756Z,13.57
2023-02-23T04:36:45.401Z,14.17
2023-02-23T04:39:11.998Z,13.83
2023-02-23T04:41:38.635Z,13.00
2023-02-23T04:44:05.302Z,14.00
2023-02-23T04:46:32.289Z,13.20
2023-02-23T04:48:59.128Z,13.53
2023-02-23T04:51:30.707Z,12.17
2023-02-23T04:53:57.725Z,12.90
2023-02-23T04:56:24.456Z,12.93
2023-02-23T04:58:51.351Z,13.70
2023-02-23T05:01:18.406Z,13.23
2023-02-23T05:03:45.215Z,14.23
2023-02-23T05:06:12.646Z,14.07
2023-02-23T05:08:40.659Z,13.67
2023-02-23T05:11:07.760Z,13.90
2023-02-23T05:13:34.698Z,13.50
2023-02-23T05:16:01.441Z,13.60
2023-02-23T05:18:28.377Z,13.27
2023-02-23T05:21:02.757Z,12.17
2023-02-23T05:23:29.572Z,13.53
2023-02-23T05:26:01.283Z,14.63
2023-02-23T05:28:27.897Z,13.83
2023-02-23T05:30:54.615Z,13.97
2023-02-23T05:33:21.778Z,13.43
2023-02-23T05:35:49.221Z,13.03
2023-02-23T05:38:15.828Z,14.13
2023-02-23T05:40:42.564Z,13.70
2023-02-23T05:43:09.163Z,13.67
2023-02-23T05:45:41.308Z,14.20
2023-02-23T05:48:08.658Z,13.73
2023-02-23T05:50:35.503Z,13.80
2023-02-23T05:53:02.330Z,13.67
2023-02-23T05:55:29.000Z,13.87
2023-02-23T05:57:55.844Z,14.20
2023-02-23T06:00:22.795Z,13.37
2023-02-23T06:02:52.254Z,13.90
2023-02-23T06:05:19.340Z,13.33
2023-02-23T06:07:46.196Z,13.87
2023-02-23T06:10:12.798Z,14.07
2023-02-23T06:12:39.418Z,14.07
2023-02-23T06:15:06.851Z,14.17
2023-02-23T06:17:33.693Z,14.53
2023-02-23T06:20:01.969Z,13.60
2023-02-23T06:22:28.630Z,14.13
2023-02-23T06:24:55.290Z,13.27
2023-02-23T06:27:21.867Z,13.80
2023-02-23T06:29:48.507Z,13.93
2023-02-23T06:32:15.267Z,13.63
2023-02-23T06:34:41.945Z,13.97
2023-02-23T06:37:09.936Z,13.97
2023-02-23T06:39:36.638Z,14.07
2023-02-23T06:42:03.509Z,14.10
2023-02-23T06:44:30.220Z,14.00
2023-02-23T06:46:57.571Z,14.30
2023-02-23T06:49:24.320Z,13.53
2023-02-23T06:51:50.944Z,13.93
2023-02-23T06:54:17.596Z,15.13
2023-02-23T06:56:44.195Z,15.03
2023-02-23T06:59:10.801Z,13.87
2023-02-23T07:01:37.686Z,14.77
2023-02-23T07:04:05.442Z,15.20
2023-02-23T07:06:32.124Z,15.40
2023-02-23T07:08:58.992Z,15.00
2023-02-23T07:11:25.625Z,14.87
2023-02-23T07:13:52.299Z,17.07
2023-02-23T07:16:19.202Z,16.43
2023-02-23T07:18:45.861Z,16.97
2023-02-23T07:21:12.513Z,16.33
2023-02-23T07:23:39.153Z,18.23
2023-02-23T07:26:05.854Z,18.23
2023-02-23T07:28:32.488Z,18.53
2023-02-23T07:30:59.236Z,20.50
2023-02-23T07:33:25.953Z,19.73
2023-02-23T07:35:52.625Z,19.30
2023-02-23T07:38:23.080Z,19.43
2023-02-23T07:40:50.953Z,20.53
2023-02-23T07:43:17.749Z,17.97
2023-02-23T07:45:46.506Z,17.77
2023-02-23T07:48:13.391Z,17.57
2023-02-23T07:50:41.705Z,18.17
2023-02-23T07:53:08.453Z,17.47
2023-02-23T07:55:35.181Z,16.97
2023-02-23T07:58:01.929Z,17.87
2023-02-23T08:00:28.542Z,18.10
2023-02-23T08:02:55.175Z,18.53
2023-02-23T08:05:21.884Z,21.80
2023-02-23T08:07:49.690Z,20.40
2023-02-23T08:10:16.466Z,21.17
2023-02-23T08:12:43.667Z,22.53
2023-02-23T08:15:11.040Z,24.97
2023-02-23T08:17:38.713Z,25.47
2023-02-23T08:20:09.896Z,25.87
2023-02-23T08:22:48.529Z,24.00
2023-02-23T08:25:16.544Z,22.93
2023-02-23T08:27:43.248Z,23.20
2023-02-23T08:30:12.735Z,21.53
2023-02-23T08:32:39.489Z,21.13
2023-02-23T08:35:07.765Z,20.17
2023-02-23T08:37:34.392Z,20.37
2023-02-23T08:40:01.008Z,19.40
2023-02-23T08:42:31.224Z,20.63
2023-02-23T08:44:59.138Z,20.07
2023-02-23T08:47:25.831Z,20.43
2023-02-23T08:49:54.389Z,20.10
2023-02-23T08:52:21.599Z,21.00
2023-02-23T08:54:48.303Z,21.97
2023-02-23T08:57:15.239Z,20.43
2023-02-23T08:59:41.951Z,20.30
2023-02-23T09:02:16.776Z,20.10
2023-02-23T09:04:43.783Z,20.83
2023-02-23T09:07:16.244Z,20.93
2023-02-23T09:09:43.117Z,21.23
2023-02-23T09:12:11.272Z,21.63
2023-02-23T09:14:38.042Z,20.93
2023-02-23T09:17:04.691Z,20.67
2023-02-23T09:19:31.349Z,20.63
2023-02-23T09:21:58.003Z,20.93
2023-02-23T09:24:24.661Z,21.57
2023-02-23T09:26:53.442Z,22.13
2023-02-23T09:29:20.188Z,22.67
2023-02-23T09:31:46.994Z,23.17
2023-02-23T09:34:13.746Z,22.73
2023-02-23T09:36:40.423Z,21.93
2023-02-23T09:39:07.063Z,22.33
2023-02-23T09:41:48.973Z,23.10
2023-02-23T09:44:21.526Z,21.63
2023-02-23T09:47:05.358Z,23.00
2023-02-23T09:49:38.532Z,22.40
2023-02-23T09:52:10.676Z,22.30
2023-02-23T09:54:37.381Z,22.10
2023-02-23T09:57:12.137Z,23.13
2023-02-23T09:59:39.756Z,23.57
2023-02-23T10:02:06.549Z,24.93
2023-02-23T10:05:13.273Z,23.90
2023-02-23T10:08:24.901Z,24.40
2023-02-23T10:11:04.726Z,25.37
2023-02-23T10:13:51.630Z,24.63
2023-02-23T10:16:27.483Z,24.20
2023-02-23T10:19:01.998Z,21.93
2023-02-23T10:21:36.048Z,25.07
2023-02-23T10:24:46.874Z,22.37
2023-02-23T10:27:18.413Z,24.63
2023-02-23T10:29:56.422Z,23.57
2023-02-23T10:32:41.661Z,23.77
2023-02-23T10:35:14.219Z,24.13
2023-02-23T10:37:40.913Z,24.40
2023-02-23T10:40:14.049Z,23.10
2023-02-23T10:42:40.734Z,24.43
2023-02-23T10:45:18.672Z,24.50
2023-02-23T10:47:45.968Z,22.97
2023-02-23T10:50:14.207Z,22.43
2023-02-23T10:52:45.511Z,22.53
2023-02-23T10:55:27.435Z,21.70
2023-02-23T10:58:19.102Z,20.17
2023-02-23T11:01:01.159Z,17.87
2023-02-23T11:03:45.737Z,18.07
2023-02-23T11:06:31.559Z,19.37
2023-02-23T11:08:58.447Z,13.87
2023-02-23T11:11:29.206Z,16.53
2023-02-23T11:13:57.425Z,16.53
2023-02-23T11:16:29.007Z,17.43
2023-02-23T11:18:59.207Z,16.20
2023-02-23T11:21:33.387Z,18.03
2023-02-23T11:24:22.650Z,18.43
2023-02-23T11:26:52.496Z,16.90
2023-02-23T11:29:26.885Z,15.83
2023-02-23T11:31:58.320Z,18.17
2023-02-23T11:34:33.453Z,16.33
2023-02-23T11:37:05.356Z,16.83
2023-02-23T11:39:33.203Z,16.23
2023-02-23T11:42:19.261Z,15.77
2023-02-23T11:45:04.971Z,14.90
2023-02-23T11:47:35.244Z,14.80
2023-02-23T11:50:03.782Z,14.77
2023-02-23T11:52:31.241Z,15.63
2023-02-23T11:55:01.752Z,15.13
2023-02-23T11:57:33.562Z,15.20
2023-02-23T12:00:11.750Z,14.70
2023-02-23T12:02:51.901Z,14.60
2023-02-23T12:05:21.340Z,14.63
2023-02-23T12:07:54.493Z,14.77
2023-02-23T12:10:42.334Z,17.17
2023-02-23T12:13:30.263Z,14.27
2023-02-23T12:16:02.564Z,13.47
2023-02-23T12:18:38.397Z,14.17
2023-02-23T12:21:19.553Z,13.27
2023-02-23T12:23:50.814Z,13.43
2023-02-23T12:26:22.663Z,13.43
2023-02-23T12:29:02.426Z,12.70
2023-02-23T12:31:47.769Z,12.97
2023-02-23T12:34:30.474Z,14.40
2023-02-23T12:37:09.258Z,12.90
2023-02-23T12:39:41.610Z,12.60
2023-02-23T12:42:51.432Z,12.63
2023-02-23T12:45:28.319Z,12.80
2023-02-23T12:48:08.845Z,12.60
2023-02-23T12:50:51.679Z,12.10
2023-02-23T12:53:37.986Z,12.20
2023-02-23T12:56:10.691Z,12.40
2023-02-23T12:58:57.250Z,10.97
2023-02-23T13:01:36.241Z,11.63
2023-02-23T13:04:24.160Z,12.47
2023-02-23T13:07:03.781Z,12.17
2023-02-23T13:09:47.327Z,13.07
2023-02-23T13:12:17.439Z,11.33
2023-02-23T13:15:21.305Z,13.43
2023-02-23T13:18:23.670Z,11.53
2023-02-23T13:20:59.296Z,9.57
2023-02-23T13:23:44.671Z,10.97
2023-02-23T13:26:25.448Z,10.47
2023-02-23T13:28:58.616Z,9.70
2023-02-23T13:31:31.706Z,10.23
2023-02-23T13:34:01.601Z,8.87
2023-02-23T13:36:31.034Z,9.30
2023-02-23T13:39:39.819Z,9.07
2023-02-23T13:42:48.480Z,8.90
2023-02-23T13:45:27.870Z,8.83
2023-02-23T13:48:00.315Z,8.73
2023-02-23T13:50:31.113Z,9.30
2023-02-23T13:53:04.901Z,8.57
2023-02-23T13:55:51.208Z,7.63
2023-02-23T13:58:27.590Z,8.50
2023-02-23T14:01:08.728Z,7.80
2023-02-23T14:04:00.324Z,7.97
2023-02-23T14:06:30.727Z,8.13
2023-02-23T14:09:13.219Z,8.17
2023-02-23T14:11:46.935Z,8.90
2023-02-23T14:14:34.611Z,9.50
2023-02-23T14:17:17.443Z,8.60
2023-02-23T14:20:06.527Z,8.87
2023-02-23T14:22:37.933Z,8.87
2023-02-23T14:25:35.486Z,8.23
2023-02-23T14:28:06.952Z,8.37
2023-02-23T14:30:50.976Z,8.43
2023-02-23T14:33:48.508Z,8.70
2023-02-23T14:36:24.229Z,9.50
2023-02-23T14:38:56.472Z,8.60
2023-02-23T14:41:51.083Z,8.27
2023-02-23T14:44:42.383Z,7.93
2023-02-23T14:47:14.000Z,8.23
2023-02-23T14:50:01.310Z,8.47
2023-02-23T14:52:33.423Z,7.80
2023-02-23T14:55:12.023Z,8.53
2023-02-23T14:57:43.509Z,7.90
2023-02-23T15:00:16.555Z,7.77
2023-02-23T15:03:00.945Z,7.87
2023-02-23T15:05:31.467Z,9.40
2023-02-23T15:08:10.702Z,8.70
2023-02-23T15:10:40.130Z,7.80
2023-02-23T15:13:17.410Z,7.90
2023-02-23T15:15:45.954Z,8.20
2023-02-23T15:18:30.851Z,8.03
2023-02-23T15:20:57.607Z,9.00
2023-02-23T15:23:24.527Z,10.20
2023-02-23T15:25:52.730Z,11.20
2023-02-23T15:28:29.504Z,10.83
2023-02-23T15:31:00.684Z,11.50
2023-02-23T15:33:30.311Z,11.17
2023-02-23T15:36:15.059Z,12.43
2023-02-23T15:38:46.455Z,12.07
2023-02-23T15:41:23.146Z,12.23
2023-02-23T15:43:50.026Z,12.27
2023-02-23T15:46:26.607Z,12.53
2023-02-23T15:48:58.206Z,12.67
2023-02-23T15:51:36.430Z,11.80
2023-02-23T15:54:15.208Z,10.13
2023-02-23T15:56:46.781Z,10.53
2023-02-23T15:59:23.861Z,12.33
2023-02-23T16:01:54.129Z,11.23
2023-02-23T16:04:27.672Z,11.70
2023-02-23T16:07:17.847Z,12.33
2023-02-23T16:09:48.826Z,12.60
2023-02-23T16:12:37.184Z,10.30
2023-02-23T16:15:29.559Z,11.10
2023-02-23T16:18:05.315Z,11.40
2023-02-23T16:20:41.386Z,11.70
2023-02-23T16:23:34.552Z,15.40
2023-02-23T16:26:18.415Z,11.27
2023-02-23T16:28:46.568Z,11.20
2023-02-23T16:31:19.982Z,10.80
2023-02-23T16:33:57.050Z,9.00
2023-02-23T16:36:33.397Z,9.77
2023-02-23T16:39:02.874Z,9.53
2023-02-23T16:41:31.732Z,10.10
2023-02-23T16:44:03.853Z,8.20
2023-02-23T16:46:33.632Z,8.53
2023-02-23T16:49:10.069Z,11.00
2023-02-23T16:51:39.827Z,9.43
2023-02-23T16:54:08.334Z,9.43
2023-02-23T16:56:35.799Z,9.43
2023-02-23T16:59:04.080Z,9.10
2023-02-23T17:01:30.858Z,10.83
2023-02-23T17:03:59.063Z,9.73
2023-02-23T17:06:28.746Z,8.90
2023-02-23T17:08:58.834Z,7.80
2023-02-23T17:11:26.610Z,8.30
2023-02-23T17:13:53.368Z,10.13
2023-02-23T17:16:20.448Z,8.30
2023-02-23T17:18:47.682Z,9.10
2023-02-23T17:21:23.919Z,8.73
2023-02-23T17:23:52.113Z,9.47
2023-02-23T17:26:23.473Z,9.80
2023-02-23T17:28:50.844Z,10.93
2023-02-23T17:31:19.789Z,10.33
2023-02-23T17:33:47.813Z,9.10
2023-02-23T17:36:17.572Z,11.60
2023-02-23T17:38:45.024Z,11.43
2023-02-23T17:41:19.957Z,10.67
2023-02-23T17:43:47.236Z,10.67
2023-02-23T17:46:14.230Z,10.10
2023-02-23T17:48:44.398Z,9.63
2023-02-23T17:51:12.708Z,9.50
2023-02-23T17:53:40.744Z,10.73
2023-02-23T17:56:09.040Z,11.73
2023-02-23T17:58:36.899Z,10.87
2023-02-23T18:01:08.896Z,10.80
2023-02-23T18:03:36.941Z,11.67
2023-02-23T18:06:06.456Z,12.37
2023-02-23T18:08:33.320Z,10.27
2023-02-23T18:11:00.198Z,11.47
2023-02-23T18:13:28.548Z,10.87
2023-02-23T18:16:00.967Z,10.67
2023-02-23T18:18:28.384Z,11.77
2023-02-23T18:20:58.067Z,11.90
2023-02-23T18:23:30.672Z,12.57
2023-02-23T18:26:08.703Z,12.00
2023-02-23T18:28:35.873Z,12.33
2023-02-23T18:31:03.186Z,12.20
2023-02-23T18:33:31.454Z,12.63
2023-02-23T18:35:58.851Z,11.57
2023-02-23T18:38:25.635Z,11.57
2023-02-23T18:40:52.579Z,12.67
2023-02-23T18:43:19.305Z,11.53
2023-02-23T18:45:45.976Z,12.43
2023-02-23T18:48:14.249Z,11.30
2023-02-23T18:50:41.521Z,10.03
2023-02-23T18:53:10.895Z,10.17
2023-02-23T18:55:38.745Z,10.27
2023-02-23T18:58:08.795Z,11.93
2023-02-23T19:00:40.053Z,14.63
2023-02-23T19:03:07.389Z,17.80
2023-02-23T19:05:36.200Z,13.30
2023-02-23T19:08:03.596Z,12.37
2023-02-23T19:10:35.241Z,12.47
2023-02-23T19:13:03.721Z,11.53
2023-02-23T19:15:31.030Z,10.50
2023-02-23T19:17:57.779Z,9.77
2023-02-23T19:20:24.470Z,10.40
2023-02-23T19:22:51.169Z,12.30
2023-02-23T19:25:17.970Z,11.57
2023-02-23T19:27:44.703Z,11.13
2023-02-23T19:30:14.933Z,12.23
2023-02-23T19:32:42.690Z,11.60
2023-02-23T19:35:14.468Z,11.63
2023-02-23T19:37:47.549Z,14.33
2023-02-23T19:40:20.555Z,14.20
2023-02-23T19:42:49.539Z,13.07
2023-02-23T19:45:17.721Z,13.77
2023-02-23T19:47:44.499Z,12.20
2023-02-23T19:50:18.973Z,12.90
2023-02-23T19:52:47.236Z,13.03
2023-02-23T19:55:15.185Z,14.40
2023-02-23T19:57:43.624Z,15.03
2023-02-23T20:00:11.982Z,13.50
2023-02-23T20:02:42.660Z,13.33
2023-02-23T20:05:16.092Z,12.47
2023-02-23T20:07:43.491Z,13.33
2023-02-23T20:10:13.810Z,13.97
2023-02-23T20:12:40.585Z,14.17
2023-02-23T20:15:08.320Z,11.07
2023-02-23T20:17:35.436Z,11.70
2023-02-23T20:20:06.695Z,16.97
2023-02-23T20:22:33.456Z,11.93
2023-02-23T20:25:00.357Z,10.97
2023-02-23T20:27:29.948Z,11.17
2023-02-23T20:30:00.673Z,8.57
2023-02-23T20:32:27.500Z,11.23
2023-02-23T20:34:54.538Z,9.67
2023-02-23T20:37:25.971Z,9.83
2023-02-23T20:39:52.780Z,10.00
2023-02-23T20:42:22.285Z,10.23
2023-02-23T20:44:48.962Z,9.73
2023-02-23T20:47:15.596Z,9.87
2023-02-23T20:49:44.534Z,10.20
2023-02-23T20:52:15.195Z,9.77
2023-02-23T20:54:42.060Z,9.83
2023-02-23T20:57:08.990Z,8.57
2023-02-23T20:59:43.023Z,8.83
2023-02-23T21:02:13.746Z,9.10
2023-02-23T21:04:42.372Z,9.20
2023-02-23T21:07:09.687Z,9.57
2023-02-23T21:09:42.427Z,9.37
2023-02-23T21:12:13.854Z,9.67
2023-02-23T21:14:43.453Z,22.93
2023-02-23T21:17:10.710Z,10.27
2023-02-23T21:19:39.163Z,10.07
2023-02-23T21:22:06.425Z,10.40
2023-02-23T21:24:37.614Z,10.77
2023-02-23T21:27:05.236Z,11.73
2023-02-23T21:29:33.206Z,12.13
2023-02-23T21:32:00.038Z,11.47
2023-02-23T21:34:26.881Z,9.97
2023-02-23T21:36:53.584Z,10.03
2023-02-23T21:39:21.468Z,10.23
2023-02-23T21:41:48.279Z,10.30
2023-02-23T21:44:14.962Z,10.60
2023-02-23T21:46:41.829Z,11.07
2023-02-23T21:49:09.638Z,10.80
2023-02-23T21:51:36.617Z,11.00
2023-02-23T21:54:04.049Z,10.37
2023-02-23T21:56:32.709Z,10.87
2023-02-23T21:58:59.782Z,11.40
2023-02-23T22:01:29.430Z,10.93
2023-02-23T22:03:57.362Z,10.93
2023-02-23T22:06:27.670Z,12.33
2023-02-23T22:08:54.924Z,11.87
2023-02-23T22:11:26.805Z,12.43
2023-02-23T22:14:05.132Z,11.43
2023-02-23T22:16:35.578Z,11.03
2023-02-23T22:19:06.716Z,11.50
2023-02-23T22:21:36.740Z,12.60
2023-02-23T22:24:05.406Z,12.50
2023-02-23T22:26:37.382Z,11.87
2023-02-23T22:29:09.764Z,11.77
2023-02-23T22:31:38.156Z,12.70
2023-02-23T22:34:06.293Z,12.10
2023-02-23T22:36:33.849Z,12.37
2023-02-23T22:39:10.889Z,12.10
2023-02-23T22:41:43.410Z,12.80
2023-02-23T22:44:16.829Z,12.17
2023-02-23T22:46:50.631Z,12.27
2023-02-23T22:49:19.669Z,13.50
2023-02-23T22:51:53.511Z,13.60
2023-02-23T22:54:23.648Z,13.90
2023-02-23T22:56:50.927Z,13.40
2023-02-23T22:59:20.184Z,13.57
2023-02-23T23:01:48.992Z,12.77
2023-02-23T23:04:16.249Z,12.90
2023-02-23T23:06:43.774Z,12.40
2023-02-23T23:09:12.148Z,13.17
2023-02-23T23:11:42.290Z,13.37
2023-02-23T23:14:10.380Z,12.73
2023-02-23T23:16:47.527Z,13.90
2023-02-23T23:19:23.759Z,13.00
2023-02-23T23:21:54.942Z,13.43
2023-02-23T23:24:24.206Z,14.27
2023-02-23T23:26:55.444Z,14.17
2023-02-23T23:29:23.632Z,14.00
2023-02-23T23:31:51.666Z,13.40
2023-02-23T23:34:21.578Z,14.30
2023-02-23T23:36:49.482Z,14.13
2023-02-23T23:39:17.925Z,14.17
2023-02-23T23:41:47.855Z,13.97
2023-02-23T23:44:23.636Z,13.33
2023-02-23T23:46:51.054Z,14.27
2023-02-23T23:49:20.544Z,13.87
2023-02-23T23:51:50.300Z,14.17
2023-02-23T23:54:23.544Z,15.13
2023-02-23T23:56:50.943Z,14.83
2023-02-23T23:59:21.230Z,14.30
